createdAt,value
2023-08-20T00:02:09.638Z,19.60
2023-08-20T00:07:11.715Z,19.60
2023-08-20T00:12:14.613Z,19.60
2023-08-20T00:17:16.666Z,19.60
2023-08-20T00:22:19.230Z,19.70
2023-08-20T00:27:21.887Z,19.70
2023-08-20T00:32:23.810Z,19.70
2023-08-20T00:37:26.746Z,19.80
2023-08-20T00:42:28.782Z,19.90
2023-08-20T00:47:31.171Z,19.90
2023-08-20T00:52:33.149Z,19.90
2023-08-20T00:57:36.164Z,20.00
2023-08-20T01:02:40.260Z,19.90
2023-08-20T01:07:49.425Z,19.90
2023-08-20T01:12:52.553Z,19.90
2023-08-20T01:17:54.739Z,19.90
2023-08-20T01:23:28.920Z,19.70
2023-08-20T01:28:32.170Z,19.70
2023-08-20T01:33:34.365Z,19.60
2023-08-20T01:38:36.978Z,19.50
2023-08-20T01:43:39.239Z,19.50
2023-08-20T01:48:41.021Z,19.50
2023-08-20T01:53:42.856Z,19.60
2023-08-20T01:58:44.830Z,19.60
2023-08-20T02:03:47.092Z,19.60
2023-08-20T02:08:48.933Z,19.70
2023-08-20T02:13:50.801Z,19.70
2023-08-20T02:18:52.601Z,19.60
2023-08-20T02:23:54.425Z,19.70
2023-08-20T02:28:56.490Z,19.70
2023-08-20T02:33:58.291Z,19.70
2023-08-20T02:39:00.211Z,19.70
2023-08-20T02:44:02.031Z,19.80
2023-08-20T02:49:03.858Z,19.80
2023-08-20T02:54:06.063Z,19.80
2023-08-20T02:59:07.913Z,19.90
2023-08-20T03:04:11.421Z,19.90
2023-08-20T03:09:13.300Z,19.90
2023-08-20T03:14:15.179Z,19.80
2023-08-20T03:19:17.548Z,19.90
2023-08-20T03:24:19.412Z,20.00
2023-08-20T03:29:21.252Z,19.90
2023-08-20T03:34:23.268Z,19.90
2023-08-20T03:39:25.136Z,19.90
2023-08-20T03:44:27.201Z,20.00
2023-08-20T03:49:29.031Z,20.00
2023-08-20T03:54:31.041Z,20.00
2023-08-20T03:59:32.985Z,20.00
2023-08-20T04:04:35.025Z,20.00
2023-08-20T04:09:37.430Z,20.00
2023-08-20T04:14:39.253Z,19.90
2023-08-20T04:19:41.141Z,20.00
2023-08-20T04:24:43.060Z,20.00
2023-08-20T04:29:45.183Z,20.00
2023-08-20T04:34:49.080Z,20.00
2023-08-20T04:39:51.041Z,20.00
2023-08-20T04:44:53.040Z,20.00
2023-08-20T04:49:55.208Z,20.00
2023-08-20T04:54:57.116Z,20.00
2023-08-20T04:59:59.260Z,20.10
2023-08-20T05:05:13.284Z,20.10
2023-08-20T05:10:15.326Z,20.10
2023-08-20T05:15:17.207Z,20.20
2023-08-20T05:20:19.130Z,20.20
2023-08-20T05:25:21.006Z,20.20
2023-08-20T05:30:24.390Z,20.30
2023-08-20T05:35:26.402Z,20.40
2023-08-20T05:40:28.938Z,20.50
2023-08-20T05:45:30.913Z,20.60
2023-08-20T05:50:32.912Z,20.70
2023-08-20T05:55:35.232Z,20.80
2023-08-20T06:00:37.302Z,20.80
2023-08-20T06:05:39.602Z,20.90
2023-08-20T06:10:41.507Z,21.00
2023-08-20T06:15:43.334Z,21.20
2023-08-20T06:20:45.202Z,21.40
2023-08-20T06:25:47.089Z,21.60
2023-08-20T06:30:48.941Z,21.90
2023-08-20T06:35:50.741Z,22.10
2023-08-20T06:40:52.694Z,22.30
2023-08-20T06:45:54.630Z,22.50
2023-08-20T06:50:56.469Z,22.80
2023-08-20T06:55:58.242Z,23.10
2023-08-20T07:01:08.173Z,23.40
2023-08-20T07:06:11.388Z,23.70
2023-08-20T07:11:13.324Z,24.00
2023-08-20T07:16:15.330Z,24.30
2023-08-20T07:21:17.200Z,24.60
2023-08-20T07:26:19.030Z,24.80
2023-08-20T07:31:23.104Z,25.10
2023-08-20T07:36:26.566Z,25.40
2023-08-20T07:41:29.586Z,25.70
2023-08-20T07:46:31.618Z,25.90
2023-08-20T07:51:33.481Z,26.20
2023-08-20T07:56:35.511Z,26.40
2023-08-20T08:01:37.892Z,26.60
2023-08-20T08:06:39.740Z,26.90
2023-08-20T08:11:41.571Z,27.20
2023-08-20T08:16:43.489Z,27.50
2023-08-20T08:21:45.741Z,27.70
2023-08-20T08:26:47.558Z,27.90
2023-08-20T08:31:49.564Z,28.10
2023-08-20T08:36:51.334Z,28.20
2023-08-20T08:41:59.749Z,28.40
2023-08-20T08:47:03.153Z,28.70
2023-08-20T08:52:07.178Z,28.80
2023-08-20T08:57:09.311Z,28.70
2023-08-20T09:02:12.851Z,28.80
2023-08-20T09:07:15.781Z,29.00
2023-08-20T09:12:18.851Z,29.20
2023-08-20T09:17:20.857Z,29.30
2023-08-20T09:22:23.639Z,29.30
2023-08-20T09:27:25.898Z,29.50
2023-08-20T09:32:29.490Z,29.60
2023-08-20T09:37:33.575Z,29.70
2023-08-20T09:42:35.854Z,29.90
2023-08-20T09:47:39.772Z,30.00
2023-08-20T09:52:49.664Z,30.20
2023-08-20T09:57:53.206Z,30.10
2023-08-20T10:02:56.018Z,30.10
2023-08-20T10:07:59.841Z,30.10
2023-08-20T10:13:02.073Z,30.10
2023-08-20T10:18:04.241Z,30.10
2023-08-20T10:23:06.197Z,30.20
2023-08-20T10:28:21.298Z,30.20
2023-08-20T10:33:23.124Z,30.40
2023-08-20T10:38:24.932Z,30.40
2023-08-20T10:43:30.943Z,30.60
2023-08-20T10:48:37.703Z,30.60
2023-08-20T10:53:40.798Z,30.60
2023-08-20T10:58:48.052Z,30.60
2023-08-20T11:03:51.986Z,30.60
2023-08-20T11:08:55.196Z,30.70
2023-08-20T11:13:57.150Z,30.80
2023-08-20T11:18:59.268Z,30.80
2023-08-20T11:24:02.140Z,30.90
2023-08-20T11:29:11.272Z,31.10
2023-08-20T11:34:13.408Z,31.20
2023-08-20T11:39:15.243Z,31.20
2023-08-20T11:44:22.566Z,31.30
2023-08-20T11:49:30.801Z,31.40
2023-08-20T11:54:33.331Z,31.30
2023-08-20T11:59:35.293Z,31.20
2023-08-20T12:04:37.360Z,31.40
2023-08-20T12:09:40.696Z,31.40
2023-08-20T12:14:43.530Z,31.30
2023-08-20T12:19:46.950Z,31.40
2023-08-20T12:24:53.218Z,31.50
2023-08-20T12:29:55.444Z,31.40
2023-08-20T12:34:57.927Z,31.50
2023-08-20T12:40:00.257Z,31.60
2023-08-20T12:45:02.825Z,31.60
2023-08-20T12:50:05.979Z,31.60
2023-08-20T12:55:09.590Z,31.50
2023-08-20T13:00:12.780Z,31.60
2023-08-20T13:05:16.221Z,31.60
2023-08-20T13:10:20.412Z,31.60
2023-08-20T13:15:23.595Z,31.80
2023-08-20T13:20:26.449Z,31.90
2023-08-20T13:25:28.559Z,31.90
2023-08-20T13:30:31.095Z,31.80
2023-08-20T13:35:34.183Z,31.70
2023-08-20T13:40:36.836Z,31.50
2023-08-20T13:45:42.107Z,31.40
2023-08-20T13:50:44.115Z,31.30
2023-08-20T13:55:46.076Z,31.30
2023-08-20T14:00:48.097Z,31.40
2023-08-20T14:05:49.981Z,31.30
2023-08-20T14:10:51.848Z,31.40
2023-08-20T14:15:53.811Z,31.30
2023-08-20T14:20:55.954Z,31.00
2023-08-20T14:25:57.938Z,30.60
2023-08-20T14:31:05.780Z,30.50
2023-08-20T14:36:07.973Z,30.30
2023-08-20T14:41:09.821Z,29.90
2023-08-20T14:46:11.836Z,29.70
2023-08-20T14:51:13.904Z,29.50
2023-08-20T14:56:15.761Z,29.50
2023-08-20T15:01:18.223Z,29.40
2023-08-20T15:06:23.302Z,29.30
2023-08-20T15:11:25.185Z,29.30
2023-08-20T15:16:27.072Z,29.20
2023-08-20T15:21:29.964Z,29.00
2023-08-20T15:26:34.657Z,28.90
2023-08-20T15:31:36.904Z,28.70
2023-08-20T15:36:38.877Z,28.60
2023-08-20T15:41:42.581Z,28.50
2023-08-20T15:46:44.560Z,28.40
2023-08-20T15:51:47.569Z,28.40
2023-08-20T15:56:49.452Z,28.40
2023-08-20T16:01:51.297Z,28.20
2023-08-20T16:06:53.325Z,28.10
2023-08-20T16:11:55.156Z,28.00
2023-08-20T16:16:57.103Z,27.80
2023-08-20T16:21:58.918Z,27.60
2023-08-20T16:27:01.716Z,27.40
2023-08-20T16:32:04.031Z,27.20
2023-08-20T16:37:06.491Z,27.10
2023-08-20T16:42:08.367Z,27.00
2023-08-20T16:47:10.263Z,26.90
2023-08-20T16:52:12.428Z,26.80
2023-08-20T16:57:14.279Z,26.80
2023-08-20T17:02:16.191Z,26.60
2023-08-20T17:07:18.167Z,26.40
2023-08-20T17:12:20.057Z,26.40
2023-08-20T17:17:22.334Z,26.30
2023-08-20T17:22:24.216Z,26.20
2023-08-20T17:27:26.085Z,26.10
2023-08-20T17:32:27.978Z,26.00
2023-08-20T17:37:30.416Z,25.90
2023-08-20T17:42:32.303Z,25.80
2023-08-20T17:47:34.144Z,25.70
2023-08-20T17:52:36.241Z,25.50
2023-08-20T17:57:38.526Z,25.30
2023-08-20T18:02:40.782Z,25.20
2023-08-20T18:07:43.193Z,25.00
2023-08-20T18:12:45.095Z,24.90
2023-08-20T18:17:46.981Z,24.80
2023-08-20T18:22:48.807Z,24.80
2023-08-20T18:27:50.664Z,24.70
2023-08-20T18:32:52.564Z,24.60
2023-08-20T18:37:54.679Z,24.50
2023-08-20T18:42:56.569Z,24.40
2023-08-20T18:47:58.483Z,24.20
2023-08-20T18:53:00.312Z,24.10
2023-08-20T18:58:02.219Z,24.10
2023-08-20T19:03:04.838Z,24.00
2023-08-20T19:08:06.817Z,23.90
2023-08-20T19:13:08.914Z,23.80
2023-08-20T19:18:10.883Z,23.70
2023-08-20T19:23:12.858Z,23.60
2023-08-20T19:28:14.751Z,23.50
2023-08-20T19:33:18.557Z,23.50
2023-08-20T19:38:20.385Z,23.40
2023-08-20T19:43:22.808Z,23.30
2023-08-20T19:48:24.987Z,23.30
2023-08-20T19:53:26.857Z,23.20
2023-08-20T19:58:28.719Z,23.10
2023-08-20T20:03:30.613Z,23.10
2023-08-20T20:08:32.423Z,23.00
2023-08-20T20:13:34.273Z,23.00
2023-08-20T20:18:36.143Z,22.90
2023-08-20T20:23:37.947Z,22.90
2023-08-20T20:28:42.590Z,22.80
2023-08-20T20:33:44.663Z,22.80
2023-08-20T20:38:46.483Z,22.70
2023-08-20T20:43:48.306Z,22.50
2023-08-20T20:48:50.156Z,22.50
2023-08-20T20:53:54.205Z,22.50
2023-08-20T20:58:56.124Z,22.50
2023-08-20T21:03:58.023Z,22.40
2023-08-20T21:09:00.599Z,22.30
2023-08-20T21:14:02.522Z,22.30
2023-08-20T21:19:04.871Z,22.20
2023-08-20T21:24:06.839Z,22.00
2023-08-20T21:29:08.807Z,22.00
2023-08-20T21:34:10.600Z,21.90
2023-08-20T21:39:12.489Z,21.80
2023-08-20T21:44:16.103Z,21.70
2023-08-20T21:49:20.137Z,21.70
2023-08-20T21:54:22.442Z,21.60
2023-08-20T21:59:24.298Z,21.60
2023-08-20T22:04:26.353Z,21.60
2023-08-20T22:09:31.409Z,21.50
2023-08-20T22:14:35.080Z,21.50
2023-08-20T22:19:37.535Z,21.50
2023-08-20T22:24:39.747Z,21.60
2023-08-20T22:29:43.072Z,21.60
2023-08-20T22:34:44.955Z,21.40
2023-08-20T22:39:46.773Z,21.40
2023-08-20T22:44:48.587Z,21.30
2023-08-20T22:49:50.428Z,21.30
2023-08-20T22:54:52.358Z,21.30
2023-08-20T22:59:54.131Z,21.30
2023-08-20T23:04:56.028Z,21.30
2023-08-20T23:09:58.221Z,21.10
2023-08-20T23:15:02.857Z,21.10
2023-08-20T23:20:07.504Z,21.10
2023-08-20T23:25:10.096Z,21.00
2023-08-20T23:30:12.423Z,21.00
2023-08-20T23:35:14.364Z,20.90
2023-08-20T23:40:16.297Z,20.90
2023-08-20T23:45:18.099Z,20.90
2023-08-20T23:50:19.974Z,20.90
2023-08-20T23:55:21.868Z,20.90
